Lebanon, New Hampshire
Current Conditions -  °F | °C
As of 10:53 AM on Wednesday 28 Jan 2015 (Local Time) from KLEB Reporting Station
Overcast Overcast  
Wind Chill:   Ceiling: 9000
Heat Index: 17°   Visibility: 10mi
Dew Point:   Wind: 14mph
Humidity: 54%   Direction: 350°N
Pressure: 30.02"   Gusts: NA
Location:  43.64°N, 72.25°W
Report Text: KLEB 281553Z 35012KT 10SM OVC090 M08/M16 A3002 RMK AO2 SLP183 T10831161
Loading
Personal Weather Stations






























Interactive Weather Map New forecast layout! Learn more

10-Day Weather Forecast

Advertisements
Track Severe Weather on mobile